createdAt,value
2023-02-01T00:00:48.531Z,-1.24
2023-02-01T00:04:00.911Z,-1.25
2023-02-01T00:07:08.538Z,-1.24
2023-02-01T00:10:15.965Z,-1.21
2023-02-01T00:13:27.523Z,-1.18
2023-02-01T00:16:32.704Z,-1.14
2023-02-01T00:19:38.351Z,-1.10
2023-02-01T00:22:47.477Z,-1.08
2023-02-01T00:25:53.991Z,-1.05
2023-02-01T00:29:15.332Z,-1.03
2023-02-01T00:32:18.130Z,-1.02
2023-02-01T00:35:26.537Z,-1.00
2023-02-01T00:38:39.076Z,-1.00
2023-02-01T00:41:44.392Z,-1.01
2023-02-01T00:44:54.759Z,-1.03
2023-02-01T00:48:05.143Z,-1.06
2023-02-01T00:51:15.555Z,-1.10
2023-02-01T00:54:20.259Z,-1.12
2023-02-01T00:57:25.612Z,-1.11
2023-02-01T01:00:35.876Z,-1.09
2023-02-01T01:03:57.388Z,-1.07
2023-02-01T01:07:13.883Z,-1.04
2023-02-01T01:10:16.795Z,-1.02
2023-02-01T01:13:25.530Z,-1.01
2023-02-01T01:16:34.166Z,-1.00
2023-02-01T01:19:38.973Z,-0.99
2023-02-01T01:22:46.802Z,-0.97
2023-02-01T01:25:58.246Z,-0.93
2023-02-01T01:29:01.870Z,-0.90
2023-02-01T01:32:08.637Z,-0.88
2023-02-01T01:35:13.217Z,-0.86
2023-02-01T01:38:19.717Z,-0.85
2023-02-01T01:41:26.940Z,-0.85
2023-02-01T01:45:00.534Z,-0.83
2023-02-01T01:48:29.946Z,-0.80
2023-02-01T01:51:44.199Z,-0.74
2023-02-01T01:54:49.643Z,-0.71
2023-02-01T01:58:08.864Z,-0.71
2023-02-01T02:01:18.543Z,-0.70
2023-02-01T02:04:26.800Z,-0.70
2023-02-01T02:10:57.335Z,-0.71
2023-02-01T02:14:04.250Z,-0.77
2023-02-01T02:17:44.974Z,-0.85
2023-02-01T02:21:04.677Z,-0.95
2023-02-01T02:25:00.527Z,-1.02
2023-02-01T02:28:34.815Z,-1.03
2023-02-01T02:32:08.174Z,-1.07
2023-02-01T02:35:42.682Z,-1.11
2023-02-01T02:38:55.042Z,-1.17
2023-02-01T02:42:27.964Z,-1.19
2023-02-01T02:46:14.102Z,-1.18
2023-02-01T02:49:31.382Z,-1.17
2023-02-01T02:52:58.455Z,-1.17
2023-02-01T02:56:27.412Z,-1.20
2023-02-01T02:59:51.600Z,-1.25
2023-02-01T03:03:15.115Z,-1.30
2023-02-01T03:09:48.495Z,-1.37
2023-02-01T03:12:59.927Z,-1.40
2023-02-01T03:16:30.265Z,-1.41
2023-02-01T03:19:50.084Z,-1.40
2023-02-01T03:22:57.907Z,-1.38
2023-02-01T03:26:11.027Z,-1.36
2023-02-01T03:29:33.987Z,-1.34
2023-02-01T03:33:01.768Z,-1.33
2023-02-01T03:36:16.085Z,-1.31
2023-02-01T10:02:06.619Z,0.42
2023-02-01T10:05:20.842Z,0.50
2023-02-01T10:08:46.084Z,0.54
2023-02-01T10:12:21.842Z,0.57
2023-02-01T10:15:41.835Z,0.61
2023-02-01T10:19:48.678Z,0.65
2023-02-01T10:23:34.385Z,0.62
2023-02-01T10:26:55.932Z,0.55
2023-02-01T10:30:13.742Z,0.54
2023-02-01T10:33:42.754Z,0.56
2023-02-01T10:37:34.746Z,0.53
2023-02-01T10:40:39.788Z,0.47
2023-02-01T10:43:44.586Z,0.41
2023-02-01T10:46:47.239Z,0.38
2023-02-01T10:50:29.757Z,0.41
2023-02-01T10:53:46.294Z,0.43
2023-02-01T10:56:54.056Z,0.40
2023-02-01T11:00:19.564Z,0.33
2023-02-01T11:03:43.753Z,0.25
2023-02-01T11:06:51.923Z,0.19
2023-02-01T11:10:02.365Z,0.19
2023-02-01T11:13:36.537Z,0.20
2023-02-01T11:16:40.180Z,0.24
2023-02-01T11:19:47.695Z,0.30
2023-02-01T11:22:57.483Z,0.32
2023-02-01T11:26:10.001Z,0.35
2023-02-01T11:29:21.796Z,0.39
2023-02-01T11:32:28.640Z,0.45
2023-02-01T11:35:34.516Z,0.52
2023-02-01T11:38:38.114Z,0.61
2023-02-01T11:42:16.465Z,0.71
2023-02-01T11:45:26.665Z,0.83
2023-02-01T11:48:37.276Z,0.82
2023-02-01T11:51:50.997Z,0.71
2023-02-01T11:55:16.188Z,0.61
2023-02-01T11:58:33.059Z,0.58
2023-02-01T12:02:01.039Z,0.60
2023-02-01T12:10:52.662Z,0.64
2023-02-01T12:14:45.458Z,0.64
2023-02-01T12:18:07.173Z,0.67
2023-02-01T12:21:29.182Z,0.70
2023-02-01T12:24:58.797Z,0.77
2023-02-01T12:28:40.918Z,0.81
2023-02-01T12:32:27.652Z,0.78
2023-02-01T12:36:04.788Z,0.64
2023-02-01T12:39:23.038Z,0.53
2023-02-01T12:42:58.046Z,0.45
2023-02-01T12:46:09.724Z,0.37
2023-02-01T12:49:26.139Z,0.35
2023-02-01T12:52:38.419Z,0.35
2023-02-01T12:55:51.679Z,0.36
2023-02-01T12:59:04.461Z,0.38
2023-02-01T13:02:39.391Z,0.38
2023-02-01T13:06:17.000Z,0.37
2023-02-01T13:09:56.609Z,0.39
2023-02-01T13:13:21.513Z,0.40
2023-02-01T13:16:48.219Z,0.38
2023-02-01T13:19:58.312Z,0.34
2023-02-01T13:23:27.136Z,0.32
2023-02-01T13:26:30.815Z,0.31
2023-02-01T13:29:35.780Z,0.33
2023-02-01T13:33:53.513Z,0.35
2023-02-01T13:36:32.056Z,0.34
2023-02-01T13:40:40.260Z,0.34
2023-02-01T16:01:27.451Z,0.28
2023-02-01T16:04:31.657Z,0.32
2023-02-01T16:07:35.805Z,0.38
2023-02-01T16:10:44.184Z,0.46
2023-02-01T16:13:46.921Z,0.54
2023-02-01T16:16:50.067Z,0.59
2023-02-01T16:19:52.913Z,0.64
2023-02-01T16:22:55.184Z,0.69
2023-02-01T16:25:57.598Z,0.74
2023-02-01T16:29:03.554Z,0.80
2023-02-01T16:32:05.829Z,0.80
2023-02-01T16:35:41.670Z,0.80
2023-02-01T16:38:47.098Z,0.81
2023-02-01T16:41:53.065Z,0.83
2023-02-01T16:44:55.914Z,0.86
2023-02-01T16:48:02.920Z,0.90
2023-02-01T16:51:13.822Z,0.93
2023-02-01T16:54:17.299Z,0.95
2023-02-01T16:57:23.812Z,1.00
2023-02-01T17:00:29.400Z,1.05
2023-02-01T17:03:32.609Z,1.03
2023-02-01T17:06:37.773Z,0.99
2023-02-01T17:09:43.444Z,0.98
2023-02-01T17:12:48.785Z,0.97
2023-02-01T17:16:01.178Z,0.92
2023-02-01T17:19:09.977Z,0.89
2023-02-01T17:22:14.200Z,0.88
2023-02-01T17:25:18.817Z,0.84
2023-02-01T17:28:21.789Z,0.83
2023-02-01T17:31:24.337Z,0.84
2023-02-01T17:34:27.988Z,0.86
2023-02-01T17:37:35.990Z,0.85
2023-02-01T17:40:40.013Z,0.83
2023-02-01T17:43:43.165Z,0.80
2023-02-01T17:46:49.157Z,0.74
2023-02-01T17:49:56.236Z,0.69
2023-02-01T17:52:58.548Z,0.64
2023-02-01T17:56:01.240Z,0.59
2023-02-01T17:59:03.385Z,0.56
2023-02-01T18:02:25.065Z,0.57
2023-02-01T18:05:41.388Z,0.59
2023-02-01T18:08:45.480Z,0.60
2023-02-01T18:11:49.994Z,0.59
2023-02-01T18:14:59.523Z,0.60
2023-02-01T18:18:13.338Z,0.60
2023-02-01T18:21:17.183Z,0.59
2023-02-01T18:24:21.254Z,0.58
2023-02-01T18:27:27.172Z,0.55
2023-02-01T18:30:32.776Z,0.54
2023-02-01T18:33:37.434Z,0.55
2023-02-01T18:36:42.957Z,0.55
2023-02-01T18:39:47.413Z,0.55
2023-02-01T18:42:53.603Z,0.55
2023-02-01T18:45:57.077Z,0.58
2023-02-01T18:49:01.812Z,0.60
2023-02-01T18:52:06.019Z,0.63
2023-02-01T18:55:12.149Z,0.64
2023-02-01T18:58:17.436Z,0.66
2023-02-01T19:01:23.548Z,0.68
2023-02-01T19:04:31.012Z,0.71
2023-02-01T19:07:59.660Z,0.74
2023-02-01T19:11:10.389Z,0.77
2023-02-01T19:14:20.668Z,0.81
2023-02-01T19:17:24.121Z,0.81
2023-02-01T19:20:30.749Z,0.81
2023-02-01T19:23:38.410Z,0.85
2023-02-01T19:26:43.115Z,0.87
2023-02-01T19:29:47.150Z,0.88
2023-02-01T19:32:50.092Z,0.90
2023-02-01T19:35:59.194Z,0.91
2023-02-01T19:39:07.406Z,0.88
2023-02-01T19:42:13.656Z,0.86
2023-02-01T19:45:20.176Z,0.83
2023-02-01T19:48:25.812Z,0.83
2023-02-01T19:51:29.726Z,0.83
2023-02-01T19:54:39.241Z,0.83
2023-02-01T19:57:43.444Z,0.83
2023-02-01T20:00:45.513Z,0.84
2023-02-01T20:04:06.523Z,0.85
2023-02-01T20:07:14.545Z,0.85
2023-02-01T20:10:22.805Z,0.84
2023-02-01T20:13:35.289Z,0.86
2023-02-01T20:16:39.075Z,0.88
2023-02-01T20:19:41.134Z,0.91
2023-02-01T20:22:45.508Z,0.95
2023-02-01T20:25:52.719Z,0.98
2023-02-01T20:28:56.129Z,0.99
2023-02-01T20:31:59.363Z,1.01
2023-02-01T20:35:02.900Z,1.04
2023-02-01T20:38:07.313Z,1.07
2023-02-01T20:41:11.445Z,1.08
2023-02-01T20:44:14.758Z,1.09
2023-02-01T20:47:18.974Z,1.10
2023-02-01T20:50:24.714Z,1.11
2023-02-01T20:53:28.523Z,1.13
2023-02-01T20:56:32.023Z,1.16
2023-02-01T20:59:37.204Z,1.18
2023-02-01T21:02:41.366Z,1.19
2023-02-01T21:05:57.779Z,1.19
2023-02-01T21:09:03.472Z,1.18
2023-02-01T21:12:08.287Z,1.18
2023-02-01T21:15:14.195Z,1.17
2023-02-01T21:18:23.061Z,1.17
2023-02-01T21:21:28.308Z,1.16
2023-02-01T21:24:31.401Z,1.16
2023-02-01T21:27:34.604Z,1.16
2023-02-01T21:30:40.421Z,1.17
2023-02-01T21:33:51.123Z,1.16
2023-02-01T21:36:56.553Z,1.16
2023-02-01T21:40:01.624Z,1.14
2023-02-01T21:43:05.654Z,1.13
2023-02-01T21:46:08.632Z,1.13
2023-02-01T21:49:13.139Z,1.11
2023-02-01T21:52:17.495Z,1.10
2023-02-01T21:55:22.188Z,1.09
2023-02-01T21:58:24.358Z,1.09
2023-02-01T22:01:30.660Z,1.10
2023-02-01T22:04:34.325Z,1.12
2023-02-01T22:07:39.312Z,1.15
2023-02-01T22:10:41.958Z,1.16
2023-02-01T22:14:03.863Z,1.16
2023-02-01T22:17:08.344Z,1.16
2023-02-01T22:20:13.849Z,1.16
2023-02-01T22:23:17.249Z,1.17
2023-02-01T22:26:21.286Z,1.18
2023-02-01T22:29:26.314Z,1.23
2023-02-01T22:32:29.497Z,1.29
2023-02-01T22:35:31.597Z,1.32
2023-02-01T22:38:35.280Z,1.33
2023-02-01T22:41:37.666Z,1.34
2023-02-01T22:44:41.411Z,1.33
2023-02-01T22:47:46.434Z,1.33
2023-02-01T22:50:51.489Z,1.34
2023-02-01T22:53:56.473Z,1.36
2023-02-01T22:57:03.727Z,1.37
2023-02-01T23:00:07.366Z,1.35
2023-02-01T23:03:11.334Z,1.32
2023-02-01T23:06:16.407Z,1.32
2023-02-01T23:09:23.031Z,1.31
2023-02-01T23:12:25.297Z,1.31
2023-02-01T23:15:34.851Z,1.33
2023-02-01T23:18:37.225Z,1.32
2023-02-01T23:21:41.164Z,1.28
2023-02-01T23:24:43.442Z,1.24
2023-02-01T23:27:49.844Z,1.19
2023-02-01T23:30:53.296Z,1.17
2023-02-01T23:33:56.994Z,1.18
2023-02-01T23:36:59.733Z,1.19
2023-02-01T23:40:04.187Z,1.22
2023-02-01T23:43:27.738Z,1.26
2023-02-01T23:46:36.243Z,1.26
2023-02-01T23:49:39.586Z,1.21
2023-02-01T23:52:43.003Z,1.16
2023-02-01T23:55:46.704Z,1.14
2023-02-01T23:58:51.261Z,1.13
